PWSweather.com
Personal Weather Stations
Station Observations
MFGBD
Tower Mfg , BavendorfDE

Tower Mfg BavendorfDE

Lat: 47.752282, Lon: 9.549614

Elevation: 1525

Station Type: Wounder Weather Station

High Low Average
Temperature 36.5°F2.5°C 25.8°F-3.4°C 32.9°F0.5°C
Dew Point 35.2°F1.8°C 24.6°F-4.1°C 31.3°F-0.4°C
Winds 6.7 mph 10.8 kmh Calm Calm 3.0 mph SSE4.8 kmh SSE
Wind Gusts 13.4 mph21.6 kmh -- 5.0 mph8.0 kmh
Humidity 100% 83% 94%
Pressure 30.24 in1024.0 mb 29.94 in1013.9 mb -
Precipitation 0.01 in0.3 mm - -
Hour Temp Dew Point Humidity Winds Wind Gusts Pressure Precip Precip Rate Daily Precip Total
12:01 AM 34.5°F1.4°C 34.5°F1.4°C 100% 1.6 mph 2.6 kmh 3.4 mph5.5 kmh 29.94 in1013.9 mb 0.00 in0.0 mm 0.00 in0.0 mm 0.00 in0.0 mm
12:31 AM 34.1°F1.2°C 34.1°F1.2°C 100% 1.0 mph N1.6 kmh N 3.1 mph5.0 kmh 29.94 in1013.9 mb 0.00 in0.0 mm 0.00 in0.0 mm 0.00 in0.0 mm
01:01 AM 34.3°F1.3°C 34.3°F1.3°C 100% Calm Calm -- 29.95 in1014.2 mb 0.00 in0.0 mm 0.00 in0.0 mm 0.00 in0.0 mm
01:31 AM 34.1°F1.2°C 34.1°F1.2°C 100% Calm Calm -- 29.96 in1014.6 mb 0.00 in0.0 mm 0.00 in0.0 mm 0.01 in0.3 mm
02:01 AM 34.3°F1.3°C 34.3°F1.3°C 100% Calm Calm -- 29.96 in1014.6 mb 0.00 in0.0 mm 0.00 in0.0 mm 0.00 in0.0 mm
02:31 AM 34.3°F1.3°C 34.3°F1.3°C 100% Calm Calm -- 29.97 in1014.9 mb 0.00 in0.0 mm 0.00 in0.0 mm 0.00 in0.0 mm
03:01 AM 34.1°F1.2°C 34.1°F1.2°C 100% Calm Calm -- 29.97 in1014.9 mb 0.00 in0.0 mm 0.00 in0.0 mm 0.00 in0.0 mm
03:31 AM 33.8°F1.0°C 33.8°F1.0°C 100% Calm Calm -- 29.98 in1015.2 mb 0.00 in0.0 mm 0.00 in0.0 mm 0.00 in0.0 mm
04:01 AM 33.9°F1.1°C 33.9°F1.1°C 100% Calm Calm -- 29.98 in1015.2 mb 0.00 in0.0 mm 0.00 in0.0 mm 0.00 in0.0 mm
04:14 AM 33.9°F1.1°C 33.9°F1.1°C 100% Calm Calm -- 29.99 in1015.6 mb 0.00 in0.0 mm 0.00 in0.0 mm 0.00 in0.0 mm
04:44 AM 33.9°F1.1°C 33.9°F1.1°C 100% Calm Calm -- 30.00 in1015.9 mb 0.00 in0.0 mm 0.00 in0.0 mm 0.00 in0.0 mm
05:14 AM 34.1°F1.2°C 34.1°F1.2°C 100% Calm Calm -- 30.01 in1016.3 mb 0.00 in0.0 mm 0.00 in0.0 mm 0.00 in0.0 mm
05:44 AM 33.9°F1.1°C 33.9°F1.1°C 100% 0.7 mph N1.1 kmh N 1.8 mph2.9 kmh 30.02 in1016.6 mb 0.00 in0.0 mm 0.00 in0.0 mm 0.00 in0.0 mm
06:14 AM 33.8°F1.0°C 33.8°F1.0°C 100% 0.7 mph NNE1.1 kmh NNE 1.8 mph2.9 kmh 30.02 in1016.6 mb 0.00 in0.0 mm 0.00 in0.0 mm 0.00 in0.0 mm
06:44 AM 33.6°F0.9°C 33.6°F0.9°C 100% 0.4 mph NNE0.6 kmh NNE 1.2 mph1.9 kmh 30.03 in1016.9 mb 0.00 in0.0 mm 0.00 in0.0 mm 0.00 in0.0 mm
07:14 AM 33.8°F1.0°C 33.8°F1.0°C 100% 1.4 mph N2.3 kmh N 2.5 mph4.0 kmh 30.05 in1017.6 mb 0.00 in0.0 mm 0.00 in0.0 mm 0.00 in0.0 mm
07:44 AM 33.8°F1.0°C 33.8°F1.0°C 100% 6.1 mph N9.8 kmh N 9.6 mph15.4 kmh 30.06 in1017.9 mb 0.00 in0.0 mm 0.00 in0.0 mm 0.00 in0.0 mm
08:14 AM 33.6°F0.9°C 33.6°F0.9°C 100% 4.5 mph N7.2 kmh N 10.0 mph16.1 kmh 30.07 in1018.3 mb 0.00 in0.0 mm 0.00 in0.0 mm 0.00 in0.0 mm
08:44 AM 33.6°F0.9°C 33.6°F0.9°C 100% 4.1 mph N6.6 kmh N 7.8 mph12.6 kmh 30.08 in1018.6 mb 0.00 in0.0 mm 0.00 in0.0 mm 0.00 in0.0 mm
09:14 AM 33.9°F1.1°C 33.9°F1.1°C 100% 3.5 mph N5.6 kmh N 4.6 mph7.4 kmh 30.10 in1019.3 mb 0.00 in0.0 mm 0.00 in0.0 mm 0.00 in0.0 mm
09:44 AM 34.7°F1.5°C 34.5°F1.4°C 99% 4.5 mph N7.2 kmh N 6.8 mph10.9 kmh 30.11 in1019.6 mb 0.00 in0.0 mm 0.00 in0.0 mm 0.00 in0.0 mm
10:14 AM 35.6°F2.0°C 35.1°F1.7°C 98% 3.7 mph N6.0 kmh N 8.4 mph13.5 kmh 30.12 in1020.0 mb 0.00 in0.0 mm 0.00 in0.0 mm 0.00 in0.0 mm
10:44 AM 36.1°F2.3°C 35.2°F1.8°C 96% 4.6 mph N7.4 kmh N 7.8 mph12.6 kmh 30.13 in1020.3 mb 0.00 in0.0 mm 0.00 in0.0 mm 0.00 in0.0 mm
11:14 AM 35.9°F2.2°C 34.2°F1.2°C 93% 6.6 mph N10.6 kmh N 10.0 mph16.1 kmh 30.13 in1020.3 mb 0.00 in0.0 mm 0.00 in0.0 mm 0.00 in0.0 mm
11:44 AM 36.3°F2.4°C 34.5°F1.4°C 93% 3.1 mph N5.0 kmh N 9.3 mph15.0 kmh 30.14 in1020.7 mb 0.00 in0.0 mm 0.00 in0.0 mm 0.00 in0.0 mm
12:14 PM 36.5°F2.5°C 33.9°F1.1°C 90% 5.0 mph N8.0 kmh N 12.5 mph20.1 kmh 30.14 in1020.7 mb 0.00 in0.0 mm 0.00 in0.0 mm 0.00 in0.0 mm
12:44 PM 36.1°F2.3°C 33.4°F0.8°C 89% 6.4 mph N10.3 kmh N 12.1 mph19.5 kmh 30.15 in1021.0 mb 0.00 in0.0 mm 0.00 in0.0 mm 0.00 in0.0 mm
01:14 PM 36.1°F2.3°C 32.7°F0.4°C 87% 6.2 mph N10.0 kmh N 10.6 mph17.1 kmh 30.15 in1021.0 mb 0.00 in0.0 mm 0.00 in0.0 mm 0.00 in0.0 mm
01:44 PM 35.9°F2.2°C 31.9°F-0.1°C 85% 4.6 mph N7.4 kmh N 13.4 mph21.6 kmh 30.16 in1021.3 mb 0.00 in0.0 mm 0.00 in0.0 mm 0.00 in0.0 mm
02:14 PM 36.1°F2.3°C 31.9°F-0.1°C 84% 6.6 mph N10.6 kmh N 10.6 mph17.1 kmh 30.16 in1021.3 mb 0.00 in0.0 mm 0.00 in0.0 mm 0.00 in0.0 mm
02:44 PM 35.2°F1.8°C 31.0°F-0.6°C 84% 6.1 mph N9.8 kmh N 12.8 mph20.6 kmh 30.17 in1021.7 mb 0.00 in0.0 mm 0.00 in0.0 mm 0.00 in0.0 mm
03:14 PM 34.8°F1.6°C 30.7°F-0.7°C 84% 5.0 mph N8.0 kmh N 9.0 mph14.5 kmh 30.17 in1021.7 mb 0.00 in0.0 mm 0.00 in0.0 mm 0.00 in0.0 mm
03:44 PM 34.5°F1.4°C 30.3°F-0.9°C 84% 5.1 mph N8.2 kmh N 7.8 mph12.6 kmh 30.18 in1022.0 mb 0.00 in0.0 mm 0.00 in0.0 mm 0.00 in0.0 mm
04:14 PM 34.1°F1.2°C 29.9°F-1.2°C 84% 4.2 mph N6.8 kmh N 9.0 mph14.5 kmh 30.18 in1022.0 mb 0.00 in0.0 mm 0.00 in0.0 mm 0.00 in0.0 mm
04:44 PM 33.6°F0.9°C 29.2°F-1.6°C 83% 6.7 mph N10.8 kmh N 10.3 mph16.6 kmh 30.19 in1022.4 mb 0.00 in0.0 mm 0.00 in0.0 mm 0.00 in0.0 mm
05:14 PM 33.2°F0.7°C 28.8°F-1.8°C 83% 2.8 mph NE4.5 kmh NE 6.2 mph10.0 kmh 30.20 in1022.7 mb 0.00 in0.0 mm 0.00 in0.0 mm 0.00 in0.0 mm
05:44 PM 32.9°F0.5°C 28.4°F-2.0°C 83% 4.0 mph NE6.4 kmh NE 6.2 mph10.0 kmh 30.20 in1022.7 mb 0.00 in0.0 mm 0.00 in0.0 mm 0.00 in0.0 mm
06:14 PM 31.8°F-0.1°C 27.4°F-2.6°C 83% 3.1 mph NE5.0 kmh NE 5.9 mph9.5 kmh 30.21 in1023.0 mb 0.00 in0.0 mm 0.00 in0.0 mm 0.00 in0.0 mm
06:44 PM 29.6°F-1.3°C 26.0°F-3.3°C 86% 1.1 mph NE1.8 kmh NE 3.1 mph5.0 kmh 30.20 in1022.7 mb 0.00 in0.0 mm 0.00 in0.0 mm 0.00 in0.0 mm
07:14 PM 28.7°F-1.8°C 25.8°F-3.4°C 88% Calm Calm -- 30.21 in1023.0 mb 0.00 in0.0 mm 0.00 in0.0 mm 0.00 in0.0 mm
07:44 PM 28.5°F-1.9°C 26.3°F-3.2°C 91% 2.8 mph N4.5 kmh N 3.4 mph5.5 kmh 30.21 in1023.0 mb 0.00 in0.0 mm 0.00 in0.0 mm 0.00 in0.0 mm
08:14 PM 28.2°F-2.1°C 26.2°F-3.2°C 92% 1.4 mph N2.3 kmh N 3.7 mph6.0 kmh 30.22 in1023.4 mb 0.00 in0.0 mm 0.00 in0.0 mm 0.00 in0.0 mm
08:44 PM 28.5°F-1.9°C 26.9°F-2.8°C 93% 4.2 mph N6.8 kmh N 5.3 mph8.5 kmh 30.21 in1023.0 mb 0.00 in0.0 mm 0.00 in0.0 mm 0.00 in0.0 mm
09:14 PM 29.1°F-1.6°C 27.1°F-2.7°C 92% 4.3 mph 6.9 kmh 6.2 mph10.0 kmh 30.22 in1023.4 mb 0.00 in0.0 mm 0.00 in0.0 mm 0.00 in0.0 mm
09:44 PM 28.2°F-2.1°C 26.5°F-3.1°C 93% 4.6 mph N7.4 kmh N 6.2 mph10.0 kmh 30.22 in1023.4 mb 0.00 in0.0 mm 0.00 in0.0 mm 0.00 in0.0 mm
10:14 PM 28.0°F-2.2°C 26.4°F-3.1°C 93% 4.7 mph N7.6 kmh N 7.1 mph11.4 kmh 30.23 in1023.7 mb 0.00 in0.0 mm 0.00 in0.0 mm 0.00 in0.0 mm
10:26 PM 28.0°F-2.2°C 26.4°F-3.1°C 93% 3.1 mph 5.0 kmh 7.8 mph12.6 kmh 30.23 in1023.7 mb 0.00 in0.0 mm 0.00 in0.0 mm 0.00 in0.0 mm
10:56 PM 27.6°F-2.4°C 26.3°F-3.2°C 94% 3.6 mph N5.8 kmh N 7.1 mph11.4 kmh 30.23 in1023.7 mb 0.00 in0.0 mm 0.00 in0.0 mm 0.00 in0.0 mm
11:26 PM 27.1°F-2.7°C 25.7°F-3.5°C 94% 3.2 mph N5.1 kmh N 5.0 mph8.0 kmh 30.24 in1024.0 mb 0.00 in0.0 mm 0.00 in0.0 mm 0.00 in0.0 mm
11:56 PM 25.8°F-3.4°C 24.6°F-4.1°C 94% 2.1 mph N3.4 kmh N 3.1 mph5.0 kmh 30.24 in1024.0 mb 0.00 in0.0 mm 0.00 in0.0 mm 0.00 in0.0 mm